Time;durP1;ratioP1;P1;durP2;ratioP2;P2;SDS_P1;SDS_P2;PMS_P1;PMS_P2;Temp;Humidity;BMP_temperature;BMP_pressure;BME280_temperature;BME280_humidity;BME280_pressure;Samples;Min_cycle;Max_cycle;Signal;HPM_P1;HPM_P2
2023/03/04 00:01:32;;;;;;;0.75;0.75;;;2.70;90.70;;;;;;5003651;28;20029;-79
2023/03/04 00:03:58;;;;;;;2.42;1.27;;;2.60;90.50;;;;;;5003209;28;20026;-79
2023/03/04 00:06:24;;;;;;;2.83;2.53;;;2.60;90.60;;;;;;5004405;28;20062;-78
2023/03/04 00:08:49;;;;;;;5.72;2.58;;;2.50;90.80;;;;;;5002264;28;20131;-79
2023/03/04 00:11:15;;;;;;;1.55;1.45;;;2.40;90.90;;;;;;4993727;28;20022;-78
2023/03/04 00:13:41;;;;;;;1.48;1.38;;;2.30;91.30;;;;;;4998859;28;20025;-78
2023/03/04 00:16:06;;;;;;;1.27;1.17;;;2.30;91.20;;;;;;5002104;28;20113;-80
2023/03/04 00:18:32;;;;;;;1.10;1.10;;;2.20;91.40;;;;;;4997284;28;20037;-81
2023/03/04 00:20:58;;;;;;;2.00;1.60;;;2.20;91.40;;;;;;4999873;28;20040;-79
2023/03/04 00:23:23;;;;;;;1.02;1.02;;;2.20;91.30;;;;;;4999421;28;20425;-78
2023/03/04 00:25:49;;;;;;;0.30;0.30;;;2.10;91.60;;;;;;4999130;28;20060;-78
2023/03/04 00:28:15;;;;;;;1.15;1.10;;;2.10;91.60;;;;;;4996462;28;20038;-79
2023/03/04 00:30:40;;;;;;;3.20;2.53;;;2.10;91.50;;;;;;4998179;28;20033;-79
2023/03/04 00:33:06;;;;;;;1.15;1.15;;;2.10;91.60;;;;;;5002210;28;20112;-78
2023/03/04 00:35:32;;;;;;;0.45;0.45;;;2.10;91.60;;;;;;5001607;28;20030;-79
2023/03/04 00:37:57;;;;;;;0.85;0.85;;;2.20;91.60;;;;;;5000799;28;20037;-80
2023/03/04 00:40:23;;;;;;;1.35;1.23;;;2.10;91.50;;;;;;5000811;28;20033;-79
2023/03/04 00:42:49;;;;;;;1.20;1.17;;;2.10;91.60;;;;;;4975567;28;20030;-78
2023/03/04 00:45:14;;;;;;;0.70;0.70;;;2.10;91.70;;;;;;4996980;28;20045;-79
2023/03/04 00:47:40;;;;;;;2.78;1.00;;;2.00;91.80;;;;;;5001391;28;20034;-79
2023/03/04 00:50:06;;;;;;;0.47;0.47;;;2.00;91.80;;;;;;4999384;28;20433;-79
2023/03/04 00:52:32;;;;;;;1.87;1.47;;;2.00;91.90;;;;;;4998622;28;20034;-79
2023/03/04 00:54:58;;;;;;;2.45;1.85;;;1.90;92.20;;;;;;4993052;28;20069;-80
2023/03/04 00:57:23;;;;;;;2.03;1.38;;;1.90;92.40;;;;;;4981477;28;20042;-79
2023/03/04 00:59:49;;;;;;;1.13;1.13;;;1.90;92.40;;;;;;5002683;28;20041;-79
2023/03/04 01:02:15;;;;;;;1.75;1.65;;;2.00;92.30;;;;;;5000316;28;20122;-79
2023/03/04 01:04:41;;;;;;;1.35;0.93;;;2.00;92.20;;;;;;5002323;28;20485;-79
2023/03/04 01:07:07;;;;;;;1.67;1.57;;;1.90;92.20;;;;;;4999760;28;20026;-79
2023/03/04 01:09:33;;;;;;;0.60;0.60;;;1.90;92.30;;;;;;4999406;28;20052;-79
2023/03/04 01:11:59;;;;;;;4.57;1.58;;;1.90;92.50;;;;;;4999487;28;20030;-79
2023/03/04 01:14:25;;;;;;;5.65;3.70;;;1.90;92.40;;;;;;4999222;28;20026;-78
2023/03/04 01:16:50;;;;;;;4.30;3.55;;;2.00;92.50;;;;;;4993885;28;20157;-80
2023/03/04 01:19:17;;;;;;;1.55;1.35;;;1.90;92.40;;;;;;4998412;28;20038;-78
2023/03/04 01:21:42;;;;;;;6.03;1.42;;;1.90;92.50;;;;;;4998983;28;20057;-79
2023/03/04 01:24:08;;;;;;;2.72;2.50;;;1.80;92.70;;;;;;4995922;28;20494;-79
2023/03/04 01:26:34;;;;;;;0.95;0.95;;;1.80;92.90;;;;;;4995699;28;20712;-78
2023/03/04 01:28:59;;;;;;;0.47;0.47;;;1.70;93.00;;;;;;4980904;28;20803;-79
2023/03/04 01:31:25;;;;;;;2.25;0.90;;;1.70;93.00;;;;;;4997009;28;20025;-79
2023/03/04 01:33:51;;;;;;;7.13;1.65;;;1.70;93.20;;;;;;5000707;28;20153;-80
2023/03/04 01:36:17;;;;;;;2.38;2.28;;;1.60;93.30;;;;;;4996488;28;20034;-79
2023/03/04 01:38:42;;;;;;;2.05;1.40;;;1.60;93.50;;;;;;5002084;28;20073;-79
2023/03/04 01:41:10;;;;;;;1.10;1.10;;;1.50;93.60;;;;;;4997794;28;20042;-80
2023/03/04 01:43:36;;;;;;;1.25;1.25;;;1.40;93.70;;;;;;4976047;28;20639;-81
2023/03/04 01:46:02;;;;;;;5.30;1.33;;;1.50;93.60;;;;;;4995357;28;20017;-80
2023/03/04 01:48:32;;;;;;;1.38;1.33;;;1.40;93.60;;;;;;5000520;28;20888;-81
2023/03/04 01:51:01;;;;;;;1.05;1.02;;;1.30;93.80;;;;;;4999203;28;20108;-81
2023/03/04 01:53:29;;;;;;;1.42;1.27;;;1.30;93.90;;;;;;4982865;28;20034;-79
2023/03/04 01:56:03;;;;;;;;;;;1.30;93.90;;;;;;4970937;28;20027;-79
2023/03/04 01:58:31;;;;;;;0.80;0.80;;;1.20;94.00;;;;;;4988304;28;20015;-80
2023/03/04 02:00:57;;;;;;;2.35;2.25;;;1.20;94.10;;;;;;4995033;28;20034;-79
2023/03/04 02:03:24;;;;;;;0.98;0.98;;;1.30;93.90;;;;;;4999660;28;20555;-80
2023/03/04 02:05:52;;;;;;;3.92;2.22;;;1.20;94.10;;;;;;4975651;28;20112;-79
2023/03/04 02:08:21;;;;;;;1.40;1.30;;;1.30;94.00;;;;;;4989393;28;20577;-80
2023/03/04 02:10:47;;;;;;;1.60;1.50;;;1.30;94.00;;;;;;4978741;28;20034;-80
2023/03/04 02:13:14;;;;;;;2.47;1.35;;;1.20;94.10;;;;;;4985031;28;20038;-81
2023/03/04 02:15:41;;;;;;;2.75;1.90;;;1.10;94.20;;;;;;4986408;28;20109;-83
2023/03/04 02:18:15;;;;;;;;;;;1.10;94.50;;;;;;4997399;28;20042;-81
2023/03/04 02:20:59;;;;;;;0.55;0.55;;;1.10;94.70;;;;;;4998996;28;19913;-80
2023/03/04 02:23:30;;;;;;;1.35;1.30;;;1.00;94.80;;;;;;4999041;28;20113;-79
2023/03/04 02:26:13;;;;;;;0.40;0.40;;;1.00;94.80;;;;;;4994147;28;20026;-79
2023/03/04 02:28:40;;;;;;;0.82;0.82;;;1.00;94.90;;;;;;5000303;28;20144;-80
2023/03/04 02:31:06;;;;;;;1.83;1.73;;;0.90;95.20;;;;;;5003664;28;20029;-79
2023/03/04 02:33:32;;;;;;;2.47;2.28;;;0.90;95.40;;;;;;5001389;28;20085;-79
2023/03/04 02:35:58;;;;;;;1.88;1.77;;;0.90;95.40;;;;;;4998590;28;20737;-79
2023/03/04 02:38:24;;;;;;;1.73;1.63;;;0.90;95.30;;;;;;4996520;28;20485;-79
2023/03/04 02:40:52;;;;;;;3.53;0.90;;;0.90;95.40;;;;;;4989924;28;20053;-80
2023/03/04 02:43:18;;;;;;;1.95;1.85;;;0.90;95.60;;;;;;4999080;28;20026;-81
2023/03/04 02:45:46;;;;;;;1.75;1.55;;;0.80;95.60;;;;;;4997534;28;20048;-80
2023/03/04 02:48:13;;;;;;;1.38;1.30;;;0.90;95.70;;;;;;4999506;28;20044;-80
2023/03/04 02:50:47;;;;;;;2.78;2.58;;;0.80;95.70;;;;;;4989467;28;20105;-79
2023/03/04 02:53:14;;;;;;;1.65;1.23;;;0.80;95.70;;;;;;4999192;28;20395;-79
2023/03/04 02:55:41;;;;;;;4.55;2.67;;;0.80;95.70;;;;;;5005591;28;20022;-79
2023/03/04 02:58:07;;;;;;;0.40;0.40;;;0.80;95.80;;;;;;4985444;28;20043;-79
2023/03/04 03:00:32;;;;;;;3.50;3.28;;;0.80;95.90;;;;;;4982471;28;20040;-78
2023/03/04 03:02:58;;;;;;;5.97;1.63;;;0.70;96.00;;;;;;5004405;28;20053;-80
2023/03/04 03:05:26;;;;;;;0.65;0.65;;;0.70;96.10;;;;;;4995408;28;20072;-79
2023/03/04 03:07:52;;;;;;;1.20;1.13;;;0.60;96.20;;;;;;5000444;28;20018;-79
2023/03/04 03:10:18;;;;;;;1.88;1.73;;;0.70;96.30;;;;;;5001389;28;20091;-78
2023/03/04 03:12:44;;;;;;;1.50;0.87;;;0.60;96.40;;;;;;5003082;28;20036;-79
2023/03/04 03:15:10;;;;;;;1.58;1.48;;;0.60;96.50;;;;;;4998460;28;20030;-81
2023/03/04 03:17:36;;;;;;;2.13;1.55;;;0.60;96.40;;;;;;4985870;28;20053;-79
2023/03/04 03:20:02;;;;;;;1.55;1.38;;;0.60;96.40;;;;;;4999581;28;20022;-80
2023/03/04 03:22:28;;;;;;;1.30;1.27;;;0.60;96.40;;;;;;4998921;28;20113;-81
2023/03/04 03:24:53;;;;;;;1.80;1.70;;;0.60;96.50;;;;;;5003679;28;20036;-79
2023/03/04 03:27:19;;;;;;;3.78;1.88;;;0.50;96.70;;;;;;4994307;28;20022;-78
2023/03/04 03:29:45;;;;;;;3.20;2.90;;;0.40;97.00;;;;;;4985611;28;20057;-80
2023/03/04 03:32:10;;;;;;;1.17;1.17;;;0.40;97.20;;;;;;4992111;28;20026;-79
2023/03/04 03:34:36;;;;;;;0.28;0.28;;;0.40;97.40;;;;;;5002571;28;20057;-78
2023/03/04 03:37:02;;;;;;;1.55;1.45;;;0.30;97.60;;;;;;5003596;28;20026;-79
2023/03/04 03:39:28;;;;;;;3.63;1.95;;;0.30;97.60;;;;;;5002179;28;20057;-83
2023/03/04 03:41:53;;;;;;;1.88;1.70;;;0.30;97.80;;;;;;4997485;28;20505;-79
2023/03/04 03:44:19;;;;;;;1.60;1.02;;;0.20;97.70;;;;;;4999306;28;20046;-80
2023/03/04 03:46:46;;;;;;;1.40;1.38;;;0.20;97.70;;;;;;4998449;28;20026;-79
2023/03/04 03:49:11;;;;;;;7.13;0.93;;;0.20;98.00;;;;;;4984374;28;20031;-79
2023/03/04 03:51:37;;;;;;;0.80;0.80;;;0.20;98.00;;;;;;4997808;28;20835;-80
2023/03/04 03:54:03;;;;;;;1.65;1.10;;;0.20;98.00;;;;;;5000377;28;20030;-81
2023/03/04 03:56:29;;;;;;;0.35;0.35;;;0.30;98.00;;;;;;5003103;28;20026;-82
2023/03/04 03:58:54;;;;;;;1.80;1.70;;;0.30;97.90;;;;;;4995536;28;20046;-82
2023/03/04 04:01:20;;;;;;;1.70;1.60;;;0.30;98.00;;;;;;5003159;28;20025;-80
2023/03/04 04:03:46;;;;;;;1.05;1.05;;;0.20;98.20;;;;;;5001815;28;20062;-79
2023/03/04 04:06:12;;;;;;;1.33;0.85;;;0.20;98.10;;;;;;5003327;28;20029;-80
2023/03/04 04:08:37;;;;;;;1.92;1.83;;;0.20;98.10;;;;;;4999969;28;20113;-80
2023/03/04 04:11:04;;;;;;;3.88;3.55;;;0.30;98.10;;;;;;5001835;28;20045;-79
2023/03/04 04:13:29;;;;;;;0.82;0.82;;;0.20;98.10;;;;;;4999422;28;20033;-79
2023/03/04 04:15:55;;;;;;;13.25;3.33;;;0.20;98.30;;;;;;5003388;28;20026;-79
2023/03/04 04:18:21;;;;;;;8.27;2.47;;;0.20;98.20;;;;;;4991165;28;20058;-79
2023/03/04 04:20:46;;;;;;;0.95;0.95;;;0.20;98.20;;;;;;4993886;28;20554;-78
2023/03/04 04:23:12;;;;;;;1.60;1.50;;;0.20;98.20;;;;;;4996148;28;20492;-78
2023/03/04 04:25:37;;;;;;;3.88;2.05;;;0.10;98.40;;;;;;4999704;28;20022;-79
2023/03/04 04:28:03;;;;;;;0.90;0.90;;;0.10;98.50;;;;;;5000376;28;20181;-79
2023/03/04 04:30:29;;;;;;;2.50;0.85;;;0.10;98.60;;;;;;5001019;28;20080;-80
2023/03/04 04:32:55;;;;;;;0.52;0.52;;;0.10;98.60;;;;;;4998877;28;20029;-80
2023/03/04 04:35:20;;;;;;;1.67;1.58;;;0.00;98.60;;;;;;5003231;28;20461;-80
2023/03/04 04:37:46;;;;;;;0.68;0.68;;;0.10;98.70;;;;;;4994907;28;20105;-79
2023/03/04 04:40:12;;;;;;;2.97;1.98;;;0.10;98.70;;;;;;5000259;28;20034;-79
2023/03/04 04:42:38;;;;;;;2.07;1.93;;;0.10;98.70;;;;;;4999140;28;20080;-79
2023/03/04 04:45:04;;;;;;;5.25;2.08;;;0.10;98.70;;;;;;4991249;28;20604;-78
2023/03/04 04:47:30;;;;;;;1.70;1.60;;;0.30;98.40;;;;;;5000447;28;20030;-78
2023/03/04 04:49:55;;;;;;;0.40;0.40;;;0.40;98.00;;;;;;5000822;28;20029;-78
2023/03/04 04:52:21;;;;;;;2.22;1.08;;;0.40;97.90;;;;;;4993851;28;20034;-77
2023/03/04 04:54:47;;;;;;;1.13;1.13;;;0.40;98.00;;;;;;5003386;28;20046;-77
2023/03/04 04:57:12;;;;;;;1.42;1.40;;;0.40;98.00;;;;;;5001605;28;20042;-78
2023/03/04 04:59:38;;;;;;;1.40;1.30;;;0.40;98.00;;;;;;5002739;28;20101;-79
2023/03/04 05:02:04;;;;;;;3.80;3.45;;;0.50;97.90;;;;;;5000674;28;20054;-82
2023/03/04 05:04:29;;;;;;;0.52;0.52;;;0.50;98.00;;;;;;4999457;28;20033;-79
2023/03/04 05:06:55;;;;;;;0.68;0.68;;;0.60;97.90;;;;;;5000575;28;20030;-79
2023/03/04 05:09:21;;;;;;;1.67;1.55;;;0.60;97.90;;;;;;5000290;28;20476;-80
2023/03/04 05:11:47;;;;;;;1.75;1.65;;;0.60;98.00;;;;;;5000088;28;20068;-80
2023/03/04 05:14:13;;;;;;;0.50;0.50;;;0.70;97.80;;;;;;4998921;28;20030;-80
2023/03/04 05:16:39;;;;;;;1.55;1.48;;;0.60;97.60;;;;;;5001126;28;20088;-79
2023/03/04 05:19:05;;;;;;;8.77;3.55;;;0.50;98.20;;;;;;4995769;28;20042;-80
2023/03/04 05:21:30;;;;;;;5.57;1.60;;;0.70;97.70;;;;;;4981903;28;20030;-80
2023/03/04 05:23:56;;;;;;;2.55;2.30;;;0.60;97.90;;;;;;4998337;28;20033;-78
2023/03/04 05:26:22;;;;;;;0.40;0.40;;;0.60;98.10;;;;;;5002337;28;20030;-79
2023/03/04 05:28:47;;;;;;;4.22;1.50;;;0.70;97.70;;;;;;5002235;28;20029;-79
2023/03/04 05:31:13;;;;;;;0.60;0.60;;;0.80;97.40;;;;;;4999734;28;20030;-79
2023/03/04 05:33:39;;;;;;;1.35;1.25;;;0.90;97.10;;;;;;4993428;28;20887;-79
2023/03/04 05:36:06;;;;;;;0.93;0.87;;;0.90;96.90;;;;;;5002703;28;20500;-80
2023/03/04 05:38:32;;;;;;;1.90;1.80;;;0.90;97.00;;;;;;4999981;28;20127;-80
2023/03/04 05:41:00;;;;;;;1.52;1.05;;;1.00;96.90;;;;;;4997723;28;20137;-79
2023/03/04 05:43:29;;;;;;;1.58;1.58;;;1.00;96.80;;;;;;4997785;28;20065;-78
2023/03/04 05:45:55;;;;;;;2.30;2.17;;;0.90;97.20;;;;;;4994854;28;20030;-79
2023/03/04 05:48:21;;;;;;;0.20;0.20;;;0.90;97.30;;;;;;5000864;28;20032;-79
2023/03/04 05:50:52;;;;;;;1.63;1.52;;;1.00;97.00;;;;;;4998976;28;20038;-78
2023/03/04 05:53:18;;;;;;;1.70;1.50;;;1.10;96.70;;;;;;5000574;28;20033;-78
2023/03/04 05:55:46;;;;;;;0.90;0.75;;;1.00;97.00;;;;;;4999870;28;20038;-78
2023/03/04 05:58:12;;;;;;;0.82;0.82;;;1.00;96.90;;;;;;5001819;28;20081;-78
2023/03/04 06:00:37;;;;;;;2.47;2.10;;;1.00;97.10;;;;;;4999872;28;20141;-78
2023/03/04 06:03:03;;;;;;;3.95;1.27;;;0.90;97.20;;;;;;4988454;28;20109;-79
2023/03/04 06:05:29;;;;;;;0.43;0.43;;;0.80;97.20;;;;;;5000541;28;20053;-78
2023/03/04 06:07:54;;;;;;;3.10;2.30;;;0.80;97.30;;;;;;5000476;28;20033;-77
2023/03/04 06:10:20;;;;;;;1.60;1.50;;;0.70;97.50;;;;;;4997868;28;20026;-79
2023/03/04 06:12:46;;;;;;;4.18;2.17;;;0.70;97.60;;;;;;4999637;28;20041;-78
2023/03/04 06:15:12;;;;;;;2.97;0.93;;;0.80;97.40;;;;;;4993658;28;20030;-79
2023/03/04 06:17:39;;;;;;;6.38;1.63;;;0.80;97.40;;;;;;5000884;28;20041;-80
2023/03/04 06:20:05;;;;;;;1.02;1.02;;;0.80;97.50;;;;;;4984793;28;20072;-80
2023/03/04 06:22:33;;;;;;;3.53;2.70;;;0.80;97.30;;;;;;4989621;28;20038;-77
2023/03/04 06:24:58;;;;;;;1.85;1.42;;;0.90;97.20;;;;;;4997476;28;20035;-78
2023/03/04 06:27:24;;;;;;;0.85;0.85;;;1.00;96.90;;;;;;4991524;28;20042;-78
2023/03/04 06:29:50;;;;;;;0.90;0.90;;;1.00;96.60;;;;;;4993432;28;20497;-77
2023/03/04 06:32:16;;;;;;;4.97;2.15;;;1.10;96.70;;;;;;4999118;28;20040;-77
2023/03/04 06:34:41;;;;;;;7.07;1.75;;;1.00;96.70;;;;;;5014182;28;20029;-78
2023/03/04 06:37:07;;;;;;;2.65;2.42;;;0.90;96.90;;;;;;5012019;28;20026;-78
2023/03/04 06:39:33;;;;;;;3.05;1.95;;;0.70;97.30;;;;;;5012342;28;20485;-77
2023/03/04 06:41:58;;;;;;;2.40;2.05;;;0.40;98.30;;;;;;5011681;28;20485;-76
2023/03/04 06:44:24;;;;;;;1.00;1.00;;;0.50;98.50;;;;;;5002632;28;20878;-76
2023/03/04 06:46:50;;;;;;;0.77;0.77;;;0.80;97.90;;;;;;5002205;28;20759;-76
2023/03/04 06:49:15;;;;;;;1.15;1.05;;;0.90;97.30;;;;;;5001100;28;20025;-75
2023/03/04 06:51:41;;;;;;;0.63;0.63;;;1.00;97.10;;;;;;5000473;28;20477;-76
2023/03/04 06:54:07;;;;;;;4.22;2.67;;;1.20;96.70;;;;;;5002731;28;20034;-75
2023/03/04 06:56:32;;;;;;;12.90;4.70;;;1.20;97.20;;;;;;4997054;28;20064;-78
2023/03/04 06:58:58;;;;;;;2.28;2.13;;;1.30;97.10;;;;;;5002965;28;20045;-78
2023/03/04 07:01:26;;;;;;;0.75;0.75;;;1.40;97.00;;;;;;5001714;28;20088;-77
2023/03/04 07:03:52;;;;;;;1.27;1.20;;;1.50;96.70;;;;;;4987207;28;20103;-76
2023/03/04 07:06:21;;;;;;;2.13;1.90;;;1.40;96.30;;;;;;5006907;28;20080;-77
2023/03/04 07:08:48;;;;;;;0.82;0.82;;;1.40;96.50;;;;;;5012134;28;20058;-77
2023/03/04 07:11:14;;;;;;;2.58;1.90;;;1.50;96.40;;;;;;4990680;28;20026;-77
2023/03/04 07:13:40;;;;;;;2.45;2.10;;;1.60;96.20;;;;;;5013747;28;20220;-76
2023/03/04 07:16:12;;;;;;;2.50;2.30;;;1.60;96.20;;;;;;4994065;28;20116;-78
2023/03/04 07:18:37;;;;;;;0.80;0.77;;;1.80;96.10;;;;;;5001356;28;20057;-79
2023/03/04 07:21:04;;;;;;;2.42;1.55;;;1.80;95.60;;;;;;5010305;28;20026;-77
2023/03/04 07:23:30;;;;;;;0.82;0.82;;;1.80;95.90;;;;;;4999601;28;20046;-78
2023/03/04 07:25:56;;;;;;;1.40;1.30;;;1.70;96.10;;;;;;5004357;28;20065;-75
2023/03/04 07:28:22;;;;;;;2.57;1.13;;;1.80;96.00;;;;;;4999190;28;20037;-79
2023/03/04 07:30:48;;;;;;;3.45;1.65;;;1.80;95.60;;;;;;5011290;28;20029;-78
2023/03/04 07:33:13;;;;;;;1.33;0.90;;;1.80;95.90;;;;;;5005103;28;20046;-78
2023/03/04 07:35:40;;;;;;;3.25;1.02;;;2.00;95.60;;;;;;5007010;28;20687;-77
2023/03/04 07:38:06;;;;;;;10.35;1.95;;;2.00;95.50;;;;;;4998324;28;20038;-73
2023/03/04 07:40:32;;;;;;;1.00;1.00;;;2.20;95.50;;;;;;4982599;28;20042;-77
2023/03/04 07:42:58;;;;;;;0.50;0.50;;;2.30;95.60;;;;;;4998471;28;20790;-77
2023/03/04 07:45:24;;;;;;;1.35;1.27;;;2.30;95.30;;;;;;5009830;28;20077;-77
2023/03/04 07:47:50;;;;;;;1.63;1.63;;;2.20;95.20;;;;;;4998949;28;20026;-77
2023/03/04 07:50:16;;;;;;;2.38;2.17;;;2.00;96.10;;;;;;5000116;28;20555;-78
2023/03/04 07:52:45;;;;;;;1.77;0.95;;;2.00;96.20;;;;;;4996965;28;20042;-77
2023/03/04 07:55:12;;;;;;;5.32;3.55;;;2.30;95.50;;;;;;5005501;28;20033;-77
2023/03/04 07:57:42;;;;;;;0.17;0.17;;;2.40;95.70;;;;;;4982026;28;20129;-74
2023/03/04 08:00:11;;;;;;;1.08;1.08;;;2.70;95.20;;;;;;5000348;28;20104;-78
2023/03/04 08:02:36;;;;;;;5.50;2.50;;;3.00;94.80;;;;;;4981568;28;20484;-77
2023/03/04 08:05:03;;;;;;;1.23;1.23;;;3.40;94.00;;;;;;5000896;28;20026;-77
2023/03/04 08:07:28;;;;;;;0.83;0.83;;;3.70;93.50;;;;;;5014104;28;20104;-77
2023/03/04 08:09:54;;;;;;;1.67;1.63;;;4.00;93.10;;;;;;4987638;28;20652;-77
2023/03/04 08:12:20;;;;;;;1.08;1.08;;;4.30;92.50;;;;;;5013544;28;20058;-77
2023/03/04 08:14:45;;;;;;;2.60;2.40;;;4.50;92.50;;;;;;5012595;28;20076;-77
2023/03/04 08:17:13;;;;;;;1.10;1.05;;;4.70;92.80;;;;;;5001283;28;20019;-77
2023/03/04 08:19:39;;;;;;;1.52;1.45;;;4.90;92.30;;;;;;5001806;28;20127;-76
2023/03/04 08:22:05;;;;;;;1.60;1.50;;;4.60;93.10;;;;;;5012400;28;20068;-77
2023/03/04 08:24:31;;;;;;;1.35;1.25;;;4.50;93.30;;;;;;5000338;28;20656;-77
2023/03/04 08:26:57;;;;;;;2.28;1.65;;;4.40;93.00;;;;;;4985269;28;20034;-77
2023/03/04 08:29:24;;;;;;;0.63;0.63;;;4.60;93.20;;;;;;4999562;28;20048;-77
2023/03/04 08:31:51;;;;;;;0.88;0.85;;;4.60;93.20;;;;;;4999255;28;20053;-77
2023/03/04 08:34:19;;;;;;;2.75;2.13;;;4.80;93.50;;;;;;5013336;28;20040;-77
2023/03/04 08:36:45;;;;;;;3.80;1.40;;;5.10;92.80;;;;;;4998082;28;20064;-76
2023/03/04 08:39:12;;;;;;;3.03;1.67;;;5.20;93.30;;;;;;4997701;28;20042;-76
2023/03/04 08:41:38;;;;;;;3.75;2.30;;;5.10;93.40;;;;;;5007312;28;20492;-77
2023/03/04 08:44:04;;;;;;;4.50;1.58;;;5.30;93.20;;;;;;5003370;28;20054;-76
2023/03/04 08:46:30;;;;;;;1.27;1.17;;;5.20;93.30;;;;;;5004954;28;20595;-77
2023/03/04 08:48:55;;;;;;;1.23;1.02;;;5.40;92.90;;;;;;4982973;28;20285;-77
2023/03/04 08:51:21;;;;;;;1.10;1.00;;;5.70;92.20;;;;;;4999561;28;20031;-77
2023/03/04 08:53:47;;;;;;;3.13;1.45;;;6.00;91.00;;;;;;5001214;28;20638;-77
2023/03/04 08:56:13;;;;;;;3.63;1.65;;;6.40;90.50;;;;;;5001806;28;20022;-77
2023/03/04 08:58:39;;;;;;;0.85;0.82;;;6.70;90.00;;;;;;4973249;28;20042;-77
2023/03/04 09:01:08;;;;;;;1.00;1.00;;;7.20;89.40;;;;;;5001914;28;20069;-77
2023/03/04 09:03:34;;;;;;;1.08;1.08;;;8.10;87.50;;;;;;4998615;28;20030;-77
2023/03/04 09:06:02;;;;;;;4.68;2.55;;;8.40;85.30;;;;;;4996472;28;20022;-77
2023/03/04 09:08:28;;;;;;;3.28;2.17;;;7.70;83.60;;;;;;4996769;28;20056;-77
2023/03/04 09:10:54;;;;;;;0.55;0.55;;;8.20;83.30;;;;;;5001095;28;20058;-77
2023/03/04 09:13:24;;;;;;;4.80;2.13;;;9.40;82.60;;;;;;5012142;28;20037;-77
2023/03/04 09:15:51;;;;;;;0.82;0.82;;;10.00;79.30;;;;;;5002950;28;20032;-77
2023/03/04 09:18:18;;;;;;;3.20;2.20;;;11.10;76.40;;;;;;4998730;28;20063;-78
2023/03/04 09:20:45;;;;;;;1.73;1.63;;;11.40;76.40;;;;;;5002970;28;20026;-77
2023/03/04 09:23:11;;;;;;;2.47;2.35;;;11.70;76.40;;;;;;4990074;28;20044;-77
2023/03/04 09:25:38;;;;;;;5.38;3.03;;;10.80;77.10;;;;;;5010268;28;20080;-77
2023/03/04 09:28:04;;;;;;;3.28;3.03;;;9.90;78.80;;;;;;4987859;28;20030;-77
2023/03/04 09:30:30;;;;;;;3.95;3.03;;;10.90;78.00;;;;;;4999464;28;20542;-77
2023/03/04 09:32:56;;;;;;;6.07;3.53;;;10.90;77.90;;;;;;5013122;28;20030;-78
2023/03/04 09:35:22;;;;;;;1.17;0.83;;;10.80;78.50;;;;;;5009644;28;20030;-77
2023/03/04 09:37:48;;;;;;;7.93;2.22;;;10.80;79.40;;;;;;5000408;28;21147;-77
2023/03/04 09:40:20;;;;;;;2.72;2.25;;;10.00;79.30;;;;;;5001033;28;20034;-77
2023/03/04 09:42:50;;;;;;;2.10;1.65;;;9.30;81.30;;;;;;5002061;28;20038;-77
2023/03/04 09:45:19;;;;;;;6.82;3.58;;;8.90;82.40;;;;;;5004377;28;20052;-77
2023/03/04 09:47:47;;;;;;;0.93;0.93;;;8.60;83.10;;;;;;5006906;28;20053;-77
2023/03/04 09:50:13;;;;;;;0.98;0.95;;;8.60;83.30;;;;;;4984241;28;20021;-77
2023/03/04 09:52:57;;;;;;;1.92;1.80;;;8.40;83.40;;;;;;4983464;28;20096;-77
2023/03/04 09:55:27;;;;;;;4.95;3.65;;;7.90;84.90;;;;;;4985199;28;20029;-77
2023/03/04 09:58:14;;;;;;;2.97;2.05;;;7.50;86.10;;;;;;4997456;28;20034;-78
2023/03/04 10:00:53;;;;;;;2.40;2.28;;;7.60;87.30;;;;;;4996235;28;20043;-77
2023/03/04 10:03:38;;;;;;;6.00;3.55;;;8.30;86.00;;;;;;5002531;28;20595;-77
2023/03/04 10:06:08;;;;;;;4.05;3.75;;;8.70;84.40;;;;;;5001772;28;20018;-78
2023/03/04 10:08:37;;;;;;;1.17;1.17;;;9.10;84.70;;;;;;5000419;28;20030;-77
2023/03/04 10:11:15;;;;;;;3.97;2.42;;;9.40;84.20;;;;;;4999318;28;20297;-77
2023/03/04 10:14:13;;;;;;;9.40;2.95;;;9.10;82.70;;;;;;4999526;28;20072;-77
2023/03/04 10:16:44;;;;;;;1.05;1.05;;;9.00;85.80;;;;;;4957813;28;20053;-77
2023/03/04 10:19:13;;;;;;;1.27;1.17;;;9.20;85.30;;;;;;5001628;28;20504;-77
2023/03/04 10:21:43;;;;;;;0.63;0.63;;;9.30;83.30;;;;;;5000284;28;20033;-77
2023/03/04 10:24:17;;;;;;;3.85;2.08;;;9.50;85.40;;;;;;4998851;28;20038;-76
2023/03/04 10:26:46;;;;;;;5.20;3.65;;;9.40;83.50;;;;;;4997983;28;20018;-77
2023/03/04 10:29:17;;;;;;;2.13;2.03;;;9.50;86.20;;;;;;5002143;28;20045;-77
2023/03/04 10:31:44;;;;;;;7.32;3.30;;;9.50;84.30;;;;;;4997382;28;20115;-78
2023/03/04 10:34:12;;;;;;;5.20;4.68;;;9.50;85.60;;;;;;4997180;28;20044;-77
2023/03/04 10:36:43;;;;;;;3.05;1.83;;;9.40;84.90;;;;;;5000235;28;20052;-77
2023/03/04 10:39:17;;;;;;;1.25;1.25;;;9.20;84.70;;;;;;5001206;28;20100;-78
2023/03/04 10:41:52;;;;;;;4.18;3.47;;;9.30;85.90;;;;;;4995481;28;20022;-77
2023/03/04 10:44:17;;;;;;;3.35;3.05;;;9.30;85.60;;;;;;4997012;28;20097;-78
2023/03/04 10:46:48;;;;;;;2.97;2.47;;;9.40;85.40;;;;;;4980906;28;20857;-77
2023/03/04 10:49:17;;;;;;;2.33;2.13;;;9.40;84.50;;;;;;5003428;28;20741;-77
2023/03/04 10:51:46;;;;;;;1.95;1.85;;;9.10;84.20;;;;;;5001410;28;20101;-78
2023/03/04 10:54:51;;;;;;;2.40;2.15;;;9.30;85.50;;;;;;5004792;28;20034;-77
2023/03/04 10:57:31;;;;;;;2.65;2.45;;;9.40;87.90;;;;;;5022358;28;20021;-77
2023/03/04 10:59:59;;;;;;;3.28;3.05;;;9.40;87.30;;;;;;5005952;28;20497;-77
2023/03/04 11:02:33;;;;;;;2.25;1.95;;;9.60;87.10;;;;;;5009768;28;20028;-77
2023/03/04 11:05:16;;;;;;;1.88;1.77;;;9.60;87.60;;;;;;4995188;28;20030;-78
2023/03/04 11:07:42;;;;;;;1.70;1.60;;;9.70;87.50;;;;;;5015063;28;20539;-77
2023/03/04 11:10:23;;;;;;;5.47;2.72;;;9.70;86.90;;;;;;5003293;28;20030;-78
2023/03/04 11:13:20;;;;;;;3.92;3.03;;;9.60;87.50;;;;;;4978417;28;20068;-78
2023/03/04 11:15:55;;;;;;;6.97;3.60;;;9.80;90.20;;;;;;4996105;28;20054;-77
2023/03/04 11:18:36;;;;;;;3.75;2.35;;;9.80;88.10;;;;;;5010409;28;20042;-78
2023/03/04 11:21:02;;;;;;;9.63;3.45;;;9.70;88.40;;;;;;5002324;28;20030;-77
2023/03/04 11:23:49;;;;;;;4.38;3.28;;;9.80;88.40;;;;;;5005158;28;20034;-77
2023/03/04 11:26:33;;;;;;;2.42;2.15;;;9.60;87.90;;;;;;5017200;28;20558;-77
2023/03/04 11:29:20;;;;;;;2.60;2.50;;;9.40;85.50;;;;;;5012319;28;20029;-77
2023/03/04 11:32:04;;;;;;;;;;;9.70;87.20;;;;;;5008799;28;20195;-77
2023/03/04 11:34:53;;;;;;;2.78;2.45;;;9.70;86.70;;;;;;5008362;28;19913;-77
2023/03/04 11:37:39;;;;;;;3.53;3.22;;;9.40;85.10;;;;;;5017019;28;20072;-77
2023/03/04 11:40:14;;;;;;;4.97;4.53;;;9.40;87.90;;;;;;5010731;28;20054;-78
2023/03/04 11:42:54;;;;;;;3.90;3.63;;;9.60;88.40;;;;;;5002893;28;20537;-81
2023/03/04 11:45:46;;;;;;;2.53;2.42;;;9.50;88.00;;;;;;5007477;28;20054;-78
2023/03/04 11:48:30;;;;;;;2.85;2.38;;;9.60;90.00;;;;;;5007134;28;20068;-78
2023/03/04 11:51:14;;;;;;;2.80;2.63;;;9.30;86.20;;;;;;4996769;28;20089;-83
2023/03/04 11:54:01;;;;;;;5.38;3.35;;;9.30;88.70;;;;;;5002603;28;20701;-78
2023/03/04 11:56:42;;;;;;;5.25;3.20;;;9.50;90.10;;;;;;4974642;28;20035;-79
2023/03/04 11:59:20;;;;;;;3.15;3.00;;;9.50;90.00;;;;;;5002259;28;20049;-78
2023/03/04 12:02:13;;;;;;;2.97;2.78;;;9.50;89.10;;;;;;4977882;28;20104;-78
2023/03/04 12:05:00;;;;;;;4.90;3.47;;;9.30;88.20;;;;;;4987768;28;20580;-76
2023/03/04 12:07:44;;;;;;;5.85;4.15;;;9.50;89.60;;;;;;5010752;28;20037;-77
2023/03/04 12:10:21;;;;;;;2.00;1.77;;;9.50;88.80;;;;;;4995421;28;20028;-78
2023/03/04 12:12:47;;;;;;;4.28;3.85;;;9.40;88.90;;;;;;5002629;28;20034;-78
2023/03/04 12:15:48;;;;;;;4.20;3.80;;;9.40;89.90;;;;;;5002233;28;20033;-78
2023/03/04 12:18:31;;;;;;;3.38;2.72;;;9.60;90.10;;;;;;5006943;28;20049;-78
2023/03/04 12:21:09;;;;;;;3.60;3.28;;;9.70;90.10;;;;;;4992972;28;20025;-78
2023/03/04 12:23:43;;;;;;;2.45;2.30;;;9.60;89.10;;;;;;4986413;28;20037;-78
2023/03/04 12:26:57;;;;;;;2.13;1.52;;;9.70;90.60;;;;;;4998560;28;20029;-79
2023/03/04 12:29:32;;;;;;;32.42;4.10;;;9.80;90.10;;;;;;4972338;28;20046;-77
2023/03/04 12:32:13;;;;;;;2.83;2.50;;;9.80;89.60;;;;;;5000169;28;20030;-78
2023/03/04 12:35:11;;;;;;;6.38;3.03;;;9.90;89.40;;;;;;5000564;28;20022;-78
2023/03/04 12:38:10;;;;;;;10.73;2.25;;;9.90;89.50;;;;;;4997942;28;20464;-78
2023/03/04 12:40:58;;;;;;;1.30;1.30;;;10.00;88.60;;;;;;4982527;28;20108;-79
2023/03/04 12:43:36;;;;;;;3.08;1.92;;;10.00;87.90;;;;;;4994150;28;20026;-78
2023/03/04 12:46:21;;;;;;;0.93;0.93;;;10.00;87.30;;;;;;4983976;28;20026;-78
2023/03/04 12:48:58;;;;;;;6.20;3.67;;;10.00;89.40;;;;;;4974648;28;20030;-79
2023/03/04 12:51:35;;;;;;;3.90;2.75;;;10.00;87.60;;;;;;4975767;28;20034;-79
2023/03/04 12:54:16;;;;;;;4.50;2.60;;;10.10;87.40;;;;;;4982530;28;20030;-79
2023/03/04 12:56:48;;;;;;;10.60;2.88;;;10.00;87.00;;;;;;4977343;28;20040;-79
2023/03/04 12:59:18;;;;;;;1.30;1.30;;;10.20;87.30;;;;;;4994930;28;20092;-78
2023/03/04 13:02:22;;;;;;;3.60;2.22;;;10.20;87.50;;;;;;5000051;28;20018;-78
2023/03/04 13:05:00;;;;;;;3.28;2.97;;;10.00;87.40;;;;;;4995246;28;20069;-79
2023/03/04 13:07:47;;;;;;;4.88;3.90;;;10.20;89.90;;;;;;5000037;28;20064;-80
2023/03/04 13:10:16;;;;;;;2.47;2.28;;;10.20;85.60;;;;;;4997325;28;20034;-81